createdAt,value
2024-02-07T00:00:19.503Z,34.30
2024-02-07T00:02:46.345Z,36.53
2024-02-07T00:05:13.318Z,34.42
2024-02-07T00:07:41.172Z,37.28
2024-02-07T00:10:08.789Z,36.53
2024-02-07T00:12:35.649Z,38.20
2024-02-07T00:15:02.530Z,33.45
2024-02-07T00:17:29.265Z,34.88
2024-02-07T00:19:56.109Z,34.08
2024-02-07T00:22:22.925Z,36.20
2024-02-07T00:24:49.774Z,36.95
2024-02-07T00:27:16.779Z,36.20
2024-02-07T00:29:43.649Z,35.95
2024-02-07T00:32:10.511Z,36.95
2024-02-07T00:34:38.359Z,34.60
2024-02-07T00:37:05.384Z,38.88
2024-02-07T00:39:32.325Z,36.67
2024-02-07T00:41:59.058Z,35.50
2024-02-07T00:44:25.784Z,34.45
2024-02-07T00:46:52.640Z,35.78
2024-02-07T00:49:19.554Z,35.10
2024-02-07T00:51:46.488Z,36.38
2024-02-07T00:54:13.467Z,34.78
2024-02-07T00:56:41.489Z,36.67
2024-02-07T00:59:08.299Z,34.30
2024-02-07T01:01:35.550Z,34.00
2024-02-07T01:04:02.367Z,31.70
2024-02-07T01:06:29.299Z,35.20
2024-02-07T01:08:56.207Z,34.65
2024-02-07T01:11:22.998Z,35.70
2024-02-07T01:13:50.613Z,36.05
2024-02-07T01:16:17.640Z,33.45
2024-02-07T01:18:44.573Z,35.40
2024-02-07T01:21:11.655Z,34.92
2024-02-07T01:23:39.831Z,32.63
2024-02-07T01:26:07.449Z,33.83
2024-02-07T01:28:34.404Z,36.17
2024-02-07T01:31:01.462Z,36.92
2024-02-07T01:33:28.353Z,35.60
2024-02-07T01:35:55.668Z,35.97
2024-02-07T01:38:22.412Z,33.13
2024-02-07T01:40:50.368Z,34.13
2024-02-07T01:43:17.612Z,35.58
2024-02-07T01:45:44.403Z,37.15
2024-02-07T01:48:11.719Z,35.00
2024-02-07T01:50:40.751Z,34.38
2024-02-07T01:53:10.845Z,39.88
2024-02-07T01:55:38.076Z,39.78
2024-02-07T01:58:05.292Z,39.35
2024-02-07T02:05:09.389Z,39.25
2024-02-07T02:07:36.221Z,39.70
2024-02-07T02:10:03.035Z,38.53
2024-02-07T02:12:30.459Z,38.25
2024-02-07T02:14:58.224Z,40.50
2024-02-07T02:17:25.070Z,41.38
2024-02-07T02:19:52.027Z,40.05
2024-02-07T02:23:02.628Z,38.15
2024-02-07T02:25:59.533Z,40.05
2024-02-07T02:29:05.747Z,38.35
2024-02-07T02:31:34.487Z,39.85
2024-02-07T02:34:02.298Z,38.20
2024-02-07T02:36:29.254Z,37.40
2024-02-07T02:38:55.982Z,38.17
2024-02-07T02:41:24.553Z,39.03
2024-02-07T02:43:51.523Z,38.45
2024-02-07T02:46:18.266Z,40.13
2024-02-07T02:48:45.263Z,37.60
2024-02-07T02:51:12.178Z,36.70
2024-02-07T02:53:39.776Z,37.35
2024-02-07T02:56:07.068Z,39.25
2024-02-07T02:58:42.420Z,37.88
2024-02-07T03:01:11.640Z,40.40
2024-02-07T03:03:39.197Z,38.15
2024-02-07T03:06:19.263Z,39.25
2024-02-07T03:08:55.212Z,38.47
2024-02-07T03:11:22.143Z,39.90
2024-02-07T03:13:49.630Z,39.15
2024-02-07T03:16:16.826Z,37.67
2024-02-07T03:18:43.739Z,39.22
2024-02-07T03:21:10.588Z,38.47
2024-02-07T03:23:37.502Z,40.95
2024-02-07T03:26:07.392Z,37.85
2024-02-07T03:28:34.239Z,38.90
2024-02-07T03:31:01.236Z,38.97
2024-02-07T03:33:28.154Z,37.35
2024-02-07T03:35:58.474Z,36.15
2024-02-07T03:38:25.326Z,38.80
2024-02-07T03:40:52.313Z,39.05
2024-02-07T03:43:19.360Z,35.38
2024-02-07T03:45:46.225Z,38.08
2024-02-07T03:48:16.702Z,38.20
2024-02-07T03:50:43.522Z,36.75
2024-02-07T03:53:10.272Z,39.65
2024-02-07T03:55:38.377Z,38.00
2024-02-07T03:58:06.528Z,38.05
2024-02-07T04:00:34.165Z,38.63
2024-02-07T04:03:01.368Z,36.75
2024-02-07T04:05:28.497Z,36.15
2024-02-07T04:07:55.584Z,37.95
2024-02-07T04:10:25.152Z,38.60
2024-02-07T04:12:52.547Z,36.90
2024-02-07T04:15:38.217Z,36.70
2024-02-07T04:18:23.916Z,36.67
2024-02-07T04:21:11.196Z,37.35
2024-02-07T04:23:57.022Z,36.13
2024-02-07T04:26:44.743Z,37.35
2024-02-07T04:29:29.937Z,36.90
2024-02-07T04:32:15.641Z,35.25
2024-02-07T04:35:02.344Z,38.85
2024-02-07T04:37:47.735Z,39.38
2024-02-07T04:40:33.099Z,39.83
2024-02-07T04:43:18.451Z,42.00
2024-02-07T04:46:03.589Z,42.00
2024-02-07T04:48:48.778Z,41.67
2024-02-07T04:51:33.822Z,41.25
2024-02-07T04:54:19.118Z,42.25
2024-02-07T04:57:04.222Z,40.90
2024-02-07T04:59:49.356Z,43.15
2024-02-07T05:02:34.567Z,44.90
2024-02-07T05:05:19.844Z,41.88
2024-02-07T05:08:05.177Z,40.72
2024-02-07T05:10:50.520Z,40.30
2024-02-07T05:13:35.788Z,40.90
2024-02-07T05:16:02.488Z,41.03
2024-02-07T05:18:29.359Z,38.50
2024-02-07T05:20:56.198Z,37.63
2024-02-07T05:23:22.893Z,38.17
2024-02-07T05:25:49.773Z,35.78
2024-02-07T05:28:16.734Z,36.03
2024-02-07T05:30:43.643Z,36.65
2024-02-07T05:33:10.762Z,36.35
2024-02-07T05:35:38.016Z,38.45
2024-02-07T05:38:05.195Z,34.42
2024-02-07T05:40:32.266Z,34.28
2024-02-07T05:43:00.442Z,33.05
2024-02-07T05:45:27.200Z,36.20
2024-02-07T05:47:53.921Z,35.40
2024-02-07T05:50:20.693Z,35.33
2024-02-07T05:52:47.689Z,32.90
2024-02-07T05:55:14.670Z,32.63
2024-02-07T05:57:41.499Z,32.95
2024-02-07T06:00:10.212Z,36.22
2024-02-07T06:02:40.152Z,37.30
2024-02-07T06:05:07.776Z,35.78
2024-02-07T06:07:35.438Z,36.13
2024-02-07T06:10:02.679Z,36.83
2024-02-07T06:12:32.196Z,39.38
2024-02-07T06:15:01.653Z,34.55
2024-02-07T06:17:30.020Z,34.80
2024-02-07T06:19:57.530Z,34.38
2024-02-07T06:22:24.530Z,36.72
2024-02-07T06:24:51.809Z,35.40
2024-02-07T06:27:18.671Z,35.72
2024-02-07T06:29:46.107Z,36.47
2024-02-07T06:32:14.239Z,34.55
2024-02-07T06:34:41.218Z,33.17
2024-02-07T06:37:08.058Z,32.13
2024-02-07T06:39:34.755Z,36.10
2024-02-07T06:42:01.496Z,34.50
2024-02-07T06:44:28.229Z,38.22
2024-02-07T06:46:55.012Z,34.72
2024-02-07T06:49:21.970Z,38.80
2024-02-07T06:51:48.971Z,32.10
2024-02-07T06:54:16.391Z,36.03
2024-02-07T06:56:43.320Z,34.78
2024-02-07T06:59:12.787Z,37.00
2024-02-07T07:01:41.521Z,35.15
2024-02-07T07:04:08.361Z,33.42
2024-02-07T07:06:35.170Z,36.45
2024-02-07T07:09:02.070Z,36.97
2024-02-07T07:11:29.125Z,37.80
2024-02-07T07:14:00.168Z,33.30
2024-02-07T07:16:29.428Z,32.25
2024-02-07T07:18:58.632Z,34.85
2024-02-07T07:21:25.395Z,34.60
2024-02-07T07:23:52.593Z,34.78
2024-02-07T07:26:19.340Z,37.05
2024-02-07T07:28:46.192Z,37.53
2024-02-07T07:31:13.006Z,35.80
2024-02-07T07:33:39.845Z,36.85
2024-02-07T07:36:07.042Z,33.75
2024-02-07T07:38:33.975Z,38.72
2024-02-07T07:41:02.997Z,36.17
2024-02-07T07:43:29.831Z,37.20
2024-02-07T07:45:56.644Z,34.10
2024-02-07T07:48:24.636Z,35.70
2024-02-07T07:50:52.194Z,35.08
2024-02-07T07:53:19.040Z,33.67
2024-02-07T07:55:45.890Z,33.65
2024-02-07T07:58:12.705Z,33.47
2024-02-07T08:00:39.463Z,34.17
2024-02-07T08:03:06.200Z,34.80
2024-02-07T08:05:33.565Z,35.95
2024-02-07T08:08:00.852Z,35.63
2024-02-07T08:10:29.058Z,36.10
2024-02-07T08:12:55.852Z,32.75
2024-02-07T08:15:22.786Z,31.27
2024-02-07T08:17:49.546Z,39.10
2024-02-07T08:20:16.470Z,37.35
2024-02-07T08:22:43.986Z,34.13
2024-02-07T08:25:10.927Z,36.53
2024-02-07T08:27:37.738Z,38.42
2024-02-07T08:30:05.113Z,36.83
2024-02-07T08:32:33.282Z,37.78
2024-02-07T08:35:00.941Z,34.55
2024-02-07T08:37:28.179Z,34.70
2024-02-07T08:39:55.263Z,34.47
2024-02-07T08:42:22.266Z,36.38
2024-02-07T08:44:49.506Z,36.95
2024-02-07T08:47:16.244Z,35.67
2024-02-07T08:49:43.310Z,34.70
2024-02-07T08:52:10.229Z,33.42
2024-02-07T08:54:36.984Z,34.70
2024-02-07T08:57:04.064Z,32.88
2024-02-07T08:59:31.523Z,36.33
2024-02-07T09:01:58.469Z,35.05
2024-02-07T09:04:25.497Z,36.50
2024-02-07T09:06:52.354Z,34.38
2024-02-07T09:09:19.127Z,37.05
2024-02-07T09:11:45.885Z,33.35
2024-02-07T09:14:13.091Z,35.95
2024-02-07T09:16:39.921Z,38.38
2024-02-07T09:19:09.261Z,37.03
2024-02-07T09:21:36.267Z,34.60
2024-02-07T09:24:05.436Z,36.15
2024-02-07T09:26:32.524Z,36.53
2024-02-07T09:29:00.762Z,37.28
2024-02-07T09:31:27.691Z,36.75
2024-02-07T09:33:54.465Z,36.03
2024-02-07T09:36:21.400Z,36.65
2024-02-07T09:38:48.208Z,33.72
2024-02-07T09:41:18.376Z,36.85
2024-02-07T09:43:46.973Z,35.20
2024-02-07T09:46:14.203Z,36.60
2024-02-07T09:48:41.021Z,38.72
2024-02-07T09:51:15.744Z,33.55
2024-02-07T09:53:42.793Z,35.78
2024-02-07T09:56:10.251Z,37.40
2024-02-07T09:58:37.229Z,36.42
2024-02-07T10:01:08.052Z,35.17
2024-02-07T10:03:37.929Z,36.30
2024-02-07T10:06:05.590Z,34.40
2024-02-07T10:08:32.526Z,36.90
2024-02-07T10:11:00.811Z,37.35
2024-02-07T10:13:28.107Z,36.40
2024-02-07T10:15:55.061Z,38.63
2024-02-07T10:18:22.031Z,37.30
2024-02-07T10:20:54.320Z,36.15
2024-02-07T10:23:22.312Z,38.10
2024-02-07T10:25:51.061Z,37.92
2024-02-07T10:28:18.447Z,39.53
2024-02-07T10:31:05.329Z,36.40
2024-02-07T10:33:43.185Z,43.17
2024-02-07T10:36:13.221Z,41.33
2024-02-07T10:38:41.091Z,37.35
2024-02-07T10:41:08.081Z,40.20
2024-02-07T10:43:37.292Z,39.67
2024-02-07T10:46:12.104Z,36.90
2024-02-07T10:48:40.044Z,39.42
2024-02-07T10:51:07.491Z,38.17
2024-02-07T10:53:34.586Z,38.33
2024-02-07T10:56:03.188Z,40.58
2024-02-07T10:58:30.736Z,38.83
2024-02-07T11:00:58.481Z,38.28
2024-02-07T11:03:36.389Z,40.08
2024-02-07T11:06:03.760Z,37.55
2024-02-07T11:08:31.023Z,39.28
2024-02-07T11:10:58.934Z,37.72
2024-02-07T11:13:26.925Z,39.25
2024-02-07T11:15:53.921Z,37.53
2024-02-07T11:18:20.983Z,37.70
2024-02-07T11:20:49.129Z,36.88
2024-02-07T11:23:20.985Z,36.22
2024-02-07T11:25:48.024Z,34.33
2024-02-07T11:28:14.946Z,34.95
2024-02-07T11:30:43.194Z,35.40
2024-02-07T11:33:11.274Z,37.35
2024-02-07T11:35:38.315Z,34.65
2024-02-07T11:38:06.053Z,35.20
2024-02-07T11:40:43.568Z,36.85
2024-02-07T11:43:19.892Z,36.05
2024-02-07T11:45:46.777Z,41.35
2024-02-07T11:48:24.158Z,37.42
2024-02-07T11:50:52.099Z,42.78
2024-02-07T11:53:22.751Z,37.80
2024-02-07T11:55:49.716Z,35.38
2024-02-07T11:58:18.876Z,36.70
2024-02-07T12:00:49.020Z,37.88
2024-02-07T12:03:16.562Z,34.15
2024-02-07T12:05:47.570Z,35.65
2024-02-07T12:08:15.485Z,38.17
2024-02-07T12:10:42.762Z,36.05
2024-02-07T12:13:11.689Z,37.65
2024-02-07T12:15:38.665Z,36.22
2024-02-07T12:18:09.553Z,36.85
2024-02-07T12:20:38.631Z,39.22
2024-02-07T12:23:06.164Z,37.45
2024-02-07T12:25:33.036Z,36.78
2024-02-07T12:28:11.659Z,36.88
2024-02-07T12:30:39.558Z,38.17
2024-02-07T12:33:06.518Z,36.97
2024-02-07T12:35:33.565Z,37.15
2024-02-07T12:38:01.654Z,35.17
2024-02-07T12:40:31.526Z,35.25
2024-02-07T12:42:59.022Z,36.42
2024-02-07T12:45:25.975Z,38.90
2024-02-07T12:47:53.227Z,37.25
2024-02-07T12:50:21.785Z,35.35
2024-02-07T12:52:49.220Z,36.90
2024-02-07T12:55:16.226Z,34.72
2024-02-07T12:57:44.822Z,33.47
2024-02-07T13:00:15.626Z,36.22
2024-02-07T13:02:49.597Z,36.20
2024-02-07T13:05:17.261Z,37.28
2024-02-07T13:07:44.425Z,36.67
2024-02-07T13:10:11.461Z,33.22
2024-02-07T13:12:39.499Z,33.97
2024-02-07T13:15:07.292Z,36.00
2024-02-07T13:17:38.156Z,37.42
2024-02-07T13:20:05.679Z,33.53
2024-02-07T13:22:32.786Z,37.03
2024-02-07T13:25:10.171Z,35.47
2024-02-07T13:27:40.804Z,35.97
2024-02-07T13:30:08.677Z,35.13
2024-02-07T13:32:35.650Z,38.92
2024-02-07T13:35:03.282Z,33.80
2024-02-07T13:37:30.300Z,35.28
2024-02-07T13:39:57.094Z,36.30
2024-02-07T13:42:23.904Z,38.40
2024-02-07T13:44:50.644Z,36.35
2024-02-07T13:47:19.105Z,38.78
2024-02-07T13:49:46.081Z,34.05
2024-02-07T13:52:13.047Z,32.97
2024-02-07T13:54:39.923Z,34.10
2024-02-07T13:57:06.983Z,36.50
2024-02-07T13:59:33.779Z,34.33
2024-02-07T14:02:02.328Z,35.88
2024-02-07T14:04:29.298Z,36.88
2024-02-07T14:06:56.191Z,36.80
2024-02-07T14:09:23.026Z,35.15
2024-02-07T14:11:49.819Z,36.42
2024-02-07T14:14:16.761Z,34.05
2024-02-07T14:16:51.115Z,34.22
2024-02-07T14:19:19.669Z,39.33
2024-02-07T14:21:46.705Z,35.95
2024-02-07T14:24:14.253Z,35.75
2024-02-07T14:26:41.397Z,37.65
2024-02-07T14:29:08.309Z,36.67
2024-02-07T14:31:35.112Z,35.85
2024-02-07T14:34:01.988Z,37.65
2024-02-07T14:36:28.807Z,36.25
2024-02-07T14:38:55.729Z,38.55
2024-02-07T14:41:23.712Z,36.70
2024-02-07T14:43:50.986Z,35.17
2024-02-07T14:46:17.772Z,36.67
2024-02-07T14:48:45.354Z,36.65
2024-02-07T14:51:12.398Z,37.25
2024-02-07T14:53:39.142Z,38.40
2024-02-07T14:56:07.136Z,35.38
2024-02-07T14:58:34.679Z,37.72
2024-02-07T15:01:01.799Z,37.60
2024-02-07T15:03:28.634Z,45.35
2024-02-07T15:05:56.423Z,38.22
2024-02-07T15:08:23.219Z,40.58
2024-02-07T15:10:50.017Z,36.90
2024-02-07T15:13:16.879Z,35.47
2024-02-07T15:15:44.315Z,35.80
2024-02-07T15:18:11.874Z,36.70
2024-02-07T15:20:39.000Z,37.28
2024-02-07T15:23:05.868Z,36.53
2024-02-07T15:25:35.234Z,37.90
2024-02-07T15:28:02.082Z,36.10
2024-02-07T15:30:28.797Z,39.28
2024-02-07T15:32:55.671Z,40.88
2024-02-07T15:35:22.762Z,40.83
2024-02-07T15:37:49.756Z,39.35
2024-02-07T15:40:17.593Z,38.30
2024-02-07T15:42:44.326Z,38.90
2024-02-07T15:45:11.134Z,39.08
2024-02-07T15:47:38.002Z,38.70
2024-02-07T15:50:05.559Z,38.90
2024-02-07T15:52:33.337Z,41.55
2024-02-07T15:55:00.130Z,38.17
2024-02-07T15:57:26.884Z,38.67
2024-02-07T15:59:53.864Z,39.63
2024-02-07T16:02:20.808Z,39.75
2024-02-07T16:04:47.602Z,36.50
2024-02-07T16:07:14.407Z,36.45
2024-02-07T16:09:44.668Z,36.65
2024-02-07T16:12:11.611Z,36.63
2024-02-07T16:14:38.430Z,40.22
2024-02-07T16:17:05.275Z,41.35
2024-02-07T16:19:32.594Z,38.85
2024-02-07T16:21:59.401Z,37.45
2024-02-07T16:24:27.940Z,39.45
2024-02-07T16:26:55.929Z,39.58
2024-02-07T16:29:24.178Z,38.08
2024-02-07T16:31:51.244Z,39.35
2024-02-07T16:34:18.366Z,40.60
2024-02-07T16:36:45.427Z,34.38
2024-02-07T16:39:12.509Z,36.55
2024-02-07T16:41:42.292Z,39.42
2024-02-07T16:44:09.370Z,43.13
2024-02-07T16:46:36.222Z,43.42
2024-02-07T16:49:04.166Z,41.58
2024-02-07T16:51:32.266Z,43.88
2024-02-07T16:53:59.763Z,45.17
2024-02-07T16:56:26.580Z,43.50
2024-02-07T16:58:53.586Z,42.83
2024-02-07T17:01:22.838Z,42.47
2024-02-07T17:03:49.838Z,41.80
2024-02-07T17:06:22.049Z,42.35
2024-02-07T17:08:49.034Z,42.47
2024-02-07T17:11:15.855Z,42.42
2024-02-07T17:13:42.688Z,42.40
2024-02-07T17:16:09.569Z,42.50
2024-02-07T17:18:36.492Z,40.95
2024-02-07T17:21:03.697Z,43.40
2024-02-07T17:23:31.451Z,43.58
2024-02-07T17:25:58.974Z,41.38
2024-02-07T17:28:27.024Z,42.13
2024-02-07T17:30:54.046Z,41.13
2024-02-07T17:33:21.235Z,41.60
2024-02-07T17:35:48.107Z,43.35
2024-02-07T17:38:15.320Z,42.05
2024-02-07T17:40:43.412Z,43.45
2024-02-07T17:43:10.209Z,39.88
2024-02-07T17:45:36.981Z,41.08
2024-02-07T17:48:04.146Z,40.85
2024-02-07T17:50:35.072Z,42.42
2024-02-07T17:53:04.615Z,42.15
2024-02-07T17:55:31.822Z,41.78
2024-02-07T17:57:58.638Z,41.78
2024-02-07T18:00:25.551Z,41.30
2024-02-07T18:02:52.520Z,42.72
2024-02-07T18:05:24.458Z,40.58
2024-02-07T18:07:57.410Z,40.90
2024-02-07T18:10:24.529Z,41.13
2024-02-07T18:12:53.695Z,39.00
2024-02-07T18:15:20.653Z,41.80
2024-02-07T18:17:47.449Z,43.70
2024-02-07T18:20:14.736Z,43.05
2024-02-07T18:22:41.639Z,41.10
2024-02-07T18:25:09.333Z,39.80
2024-02-07T18:27:37.017Z,42.58
2024-02-07T18:30:04.452Z,40.55
2024-02-07T18:32:31.876Z,41.33
2024-02-07T18:34:59.114Z,43.35
2024-02-07T18:37:26.035Z,39.17
2024-02-07T18:39:52.919Z,39.55
2024-02-07T18:42:19.879Z,39.83
2024-02-07T18:44:46.588Z,41.17
2024-02-07T18:47:13.565Z,39.22
2024-02-07T18:49:40.428Z,39.97
2024-02-07T18:52:07.377Z,36.83
2024-02-07T18:57:39.221Z,39.70
2024-02-07T19:00:09.006Z,40.03
2024-02-07T19:02:36.055Z,39.20
2024-02-07T19:05:03.322Z,40.92
2024-02-07T19:07:30.373Z,41.72
2024-02-07T19:09:57.273Z,39.70
2024-02-07T19:12:24.195Z,39.72
2024-02-07T19:15:00.094Z,35.33
2024-02-07T19:17:29.181Z,41.35
2024-02-07T19:19:56.088Z,36.58
2024-02-07T19:22:25.103Z,42.45
2024-02-07T19:24:56.356Z,39.05
2024-02-07T19:27:23.176Z,38.83
2024-02-07T19:29:50.232Z,39.47
2024-02-07T19:32:17.184Z,38.42
2024-02-07T19:34:45.010Z,41.72
2024-02-07T19:37:11.853Z,40.42
2024-02-07T19:39:38.620Z,43.03
2024-02-07T19:42:06.426Z,41.92
2024-02-07T19:44:33.278Z,42.33
2024-02-07T19:47:00.170Z,40.75
2024-02-07T19:49:27.194Z,44.63
2024-02-07T19:51:53.998Z,52.50
2024-02-07T19:54:20.818Z,43.38
2024-02-07T19:59:15.122Z,43.38
2024-02-07T20:01:41.930Z,43.45
2024-02-07T20:04:11.674Z,43.88
2024-02-07T20:06:39.224Z,40.63
2024-02-07T20:09:06.311Z,43.10
2024-02-07T20:11:33.402Z,42.88
2024-02-07T20:14:00.248Z,43.15
2024-02-07T20:16:27.073Z,44.95
2024-02-07T20:18:53.984Z,43.75
2024-02-07T20:21:20.881Z,50.70
2024-02-07T20:23:47.637Z,43.85
2024-02-07T20:26:14.514Z,44.13
2024-02-07T20:28:41.881Z,42.63
2024-02-07T20:31:09.253Z,48.53
2024-02-07T20:33:36.077Z,43.22
2024-02-07T20:36:03.177Z,40.35
2024-02-07T20:38:30.012Z,40.33
2024-02-07T20:40:57.018Z,42.75
2024-02-07T20:43:23.860Z,41.30
2024-02-07T20:45:50.643Z,46.88
2024-02-07T20:48:17.685Z,41.45
2024-02-07T20:50:44.608Z,43.30
2024-02-07T20:53:12.356Z,40.38
2024-02-07T20:55:39.182Z,41.30
2024-02-07T20:58:05.954Z,42.33
2024-02-07T21:00:34.052Z,44.30
2024-02-07T21:03:02.905Z,41.40
2024-02-07T21:05:30.303Z,40.80
2024-02-07T21:07:57.274Z,40.28
2024-02-07T21:10:24.199Z,40.42
2024-02-07T21:12:50.982Z,41.25
2024-02-07T21:15:18.686Z,42.88
2024-02-07T21:17:46.266Z,42.67
2024-02-07T21:20:15.133Z,42.90
2024-02-07T21:22:42.195Z,43.08
2024-02-07T21:25:09.671Z,42.50
2024-02-07T21:27:36.813Z,45.08
2024-02-07T21:30:03.913Z,43.72
2024-02-07T21:32:30.731Z,46.58
2024-02-07T21:34:57.732Z,45.58
2024-02-07T21:37:24.495Z,46.58
2024-02-07T21:39:51.251Z,44.30
2024-02-07T21:42:18.131Z,45.03
2024-02-07T21:44:44.955Z,38.30
2024-02-07T21:47:11.761Z,42.60
2024-02-07T21:49:38.624Z,38.72
2024-02-07T21:52:06.515Z,39.00
2024-02-07T21:54:33.260Z,38.03
2024-02-07T21:57:00.080Z,41.08
2024-02-07T21:59:26.779Z,40.67
2024-02-07T22:01:53.583Z,39.42
2024-02-07T22:04:20.651Z,38.50
2024-02-07T22:06:47.565Z,39.58
2024-02-07T22:09:14.389Z,40.03
2024-02-07T22:11:41.204Z,40.30
2024-02-07T22:14:10.189Z,39.05
2024-02-07T22:16:37.179Z,40.08
2024-02-07T22:19:04.019Z,38.17
2024-02-07T22:21:30.954Z,40.95
2024-02-07T22:23:58.656Z,39.22
2024-02-07T22:26:25.486Z,39.22
2024-02-07T22:28:52.388Z,38.30
2024-02-07T22:31:21.833Z,37.33
2024-02-07T22:33:52.496Z,39.80
2024-02-07T22:36:20.442Z,39.25
2024-02-07T22:38:47.501Z,38.25
2024-02-07T22:41:14.373Z,39.70
2024-02-07T22:43:41.367Z,37.88
2024-02-07T22:46:11.596Z,39.80
2024-02-07T22:48:38.994Z,41.88
2024-02-07T22:51:06.052Z,39.28
2024-02-07T22:53:32.978Z,39.25
2024-02-07T22:56:00.492Z,42.00
2024-02-07T22:58:28.920Z,38.55
2024-02-07T23:00:56.468Z,38.50
2024-02-07T23:03:23.538Z,40.28
2024-02-07T23:05:51.234Z,40.05
2024-02-07T23:08:18.390Z,38.55
2024-02-07T23:10:51.393Z,40.80
2024-02-07T23:13:22.162Z,40.25
2024-02-07T23:15:48.939Z,39.60
2024-02-07T23:18:15.896Z,41.53
2024-02-07T23:20:42.780Z,41.60
2024-02-07T23:23:09.608Z,38.50
2024-02-07T23:25:36.503Z,42.60
2024-02-07T23:28:03.440Z,39.83
2024-02-07T23:30:32.353Z,40.13
2024-02-07T23:32:59.279Z,40.75
2024-02-07T23:35:26.337Z,38.53
2024-02-07T23:37:53.318Z,40.63
2024-02-07T23:40:20.125Z,38.75
2024-02-07T23:42:47.965Z,40.28
2024-02-07T23:45:14.888Z,41.50
2024-02-07T23:47:41.700Z,41.17
2024-02-07T23:50:08.910Z,39.20
2024-02-07T23:52:36.033Z,39.60
2024-02-07T23:55:05.936Z,37.63
2024-02-07T23:57:32.680Z,39.83
2024-02-07T23:59:59.466Z,39.85
